createdAt,value
2017-12-27T00:00:09.198Z,84.3
2017-12-27T00:01:13.357Z,84
2017-12-27T00:02:21.244Z,84.1
2017-12-27T00:03:25.291Z,84
2017-12-27T00:04:28.639Z,84.1
2017-12-27T00:05:32.571Z,84.2
2017-12-27T00:06:36.079Z,84.1
2017-12-27T00:07:39.519Z,84.3
2017-12-27T00:08:42.799Z,84.3
2017-12-27T00:09:46.259Z,84.6
2017-12-27T00:10:49.868Z,84.8
2017-12-27T00:11:53.378Z,84.8
2017-12-27T00:13:01.825Z,85
2017-12-27T00:14:05.131Z,85.1
2017-12-27T00:15:08.552Z,85
2017-12-27T00:16:13.052Z,84.9
2017-12-27T00:17:17.068Z,84.8
2017-12-27T00:18:20.491Z,84.7
2017-12-27T00:19:23.800Z,85.7
2017-12-27T00:20:27.100Z,84.7
2017-12-27T00:21:30.638Z,84.8
2017-12-27T00:22:34.868Z,84.9
2017-12-27T00:23:43.080Z,84.9
2017-12-27T00:24:47.458Z,85
2017-12-27T00:25:51.431Z,85
2017-12-27T00:26:55.548Z,85
2017-12-27T00:27:58.881Z,85
2017-12-27T00:29:02.307Z,85.1
2017-12-27T00:30:05.625Z,85.1
2017-12-27T00:31:10.608Z,85.2
2017-12-27T00:32:14.512Z,85
2017-12-27T00:33:17.923Z,84.9
2017-12-27T00:34:24.991Z,84.8
2017-12-27T00:35:28.511Z,84.8
2017-12-27T00:36:32.199Z,84.6
2017-12-27T00:37:35.734Z,84.8
2017-12-27T00:38:39.138Z,85
2017-12-27T00:39:42.538Z,85.9
2017-12-27T00:40:46.129Z,85.3
2017-12-27T00:41:50.231Z,85.3
2017-12-27T00:42:53.631Z,85.3
2017-12-27T00:43:57.032Z,85
2017-12-27T00:45:04.135Z,84.9
2017-12-27T00:46:07.479Z,85
2017-12-27T00:47:10.927Z,85.1
2017-12-27T00:48:14.342Z,85
2017-12-27T00:49:17.762Z,85
2017-12-27T00:50:21.193Z,84.9
2017-12-27T00:51:24.697Z,84.6
2017-12-27T00:52:28.002Z,84.7
2017-12-27T00:53:31.432Z,84.6
2017-12-27T00:54:35.428Z,84.7
2017-12-27T00:55:43.140Z,84.9
2017-12-27T00:56:46.506Z,84.9
2017-12-27T00:57:50.443Z,84.9
2017-12-27T00:58:53.788Z,84.9
2017-12-27T00:59:57.218Z,84.8
2017-12-27T01:01:00.600Z,84.8
2017-12-27T01:02:04.087Z,84.7
2017-12-27T01:03:07.279Z,84.6
2017-12-27T01:04:10.622Z,84.5
2017-12-27T01:05:13.905Z,85.3
2017-12-27T01:06:20.850Z,84.6
2017-12-27T01:07:24.461Z,84.5
2017-12-27T01:08:28.004Z,84.5
2017-12-27T01:09:31.495Z,84.5
2017-12-27T01:10:34.863Z,84.4
2017-12-27T01:11:38.239Z,84.3
2017-12-27T01:12:41.588Z,84.5
2017-12-27T01:13:44.865Z,84.4
2017-12-27T01:14:48.879Z,84.6
2017-12-27T01:15:52.194Z,84.6
2017-12-27T01:16:59.179Z,84.7
2017-12-27T01:18:02.781Z,84.7
2017-12-27T01:19:06.170Z,84.8
2017-12-27T01:20:09.597Z,84.9
2017-12-27T01:21:12.971Z,84.7
2017-12-27T01:22:16.378Z,84.7
2017-12-27T01:23:19.734Z,84.9
2017-12-27T01:24:23.071Z,85.2
2017-12-27T01:25:26.512Z,85.2
2017-12-27T01:26:29.912Z,85.4
2017-12-27T01:27:36.915Z,85.6
2017-12-27T01:28:40.400Z,85.7
2017-12-27T01:29:43.725Z,85.6
2017-12-27T01:30:47.187Z,85.4
2017-12-27T01:31:50.574Z,85.5
2017-12-27T01:32:53.857Z,85.5
2017-12-27T01:33:57.254Z,85.4
2017-12-27T01:35:01.280Z,85.6
2017-12-27T01:36:04.587Z,85.6
2017-12-27T01:37:07.972Z,85.5
2017-12-27T01:38:15.541Z,85.4
2017-12-27T01:39:18.939Z,85.3
2017-12-27T01:40:22.460Z,85.2
2017-12-27T01:41:25.902Z,85
2017-12-27T01:42:29.334Z,84.9
2017-12-27T01:43:32.715Z,85
2017-12-27T01:44:36.244Z,85
2017-12-27T01:45:39.555Z,85.2
2017-12-27T01:46:43.056Z,85.2
2017-12-27T01:47:46.614Z,85.1
2017-12-27T01:48:54.050Z,85.1
2017-12-27T01:49:57.494Z,85.2
2017-12-27T01:51:00.853Z,85.2
2017-12-27T01:52:04.271Z,85.2
2017-12-27T01:53:08.358Z,85.3
2017-12-27T01:54:11.702Z,85.4
2017-12-27T01:55:15.208Z,85.5
2017-12-27T01:56:18.825Z,85.5
2017-12-27T01:57:22.194Z,85.3
2017-12-27T01:58:25.639Z,85.2
2017-12-27T01:59:32.452Z,85.2
2017-12-27T02:00:35.772Z,85.1
2017-12-27T02:01:39.131Z,85
2017-12-27T02:02:42.452Z,84.8
2017-12-27T02:03:45.768Z,84.6
2017-12-27T02:04:49.146Z,84.5
2017-12-27T02:05:52.501Z,84.3
2017-12-27T02:06:55.928Z,84.3
2017-12-27T02:07:59.303Z,84.3
2017-12-27T02:09:02.817Z,84.3
2017-12-27T02:10:10.331Z,84.2
2017-12-27T02:11:13.650Z,84.2
2017-12-27T02:12:17.005Z,84
2017-12-27T02:13:21.033Z,83.9
2017-12-27T02:14:24.567Z,84
2017-12-27T02:15:27.797Z,84.1
2017-12-27T02:16:31.038Z,84
2017-12-27T02:17:34.518Z,83.8
2017-12-27T02:18:38.052Z,83.7
2017-12-27T02:19:41.538Z,83.6
2017-12-27T02:20:48.525Z,83.8
2017-12-27T02:21:51.975Z,84
2017-12-27T02:22:55.385Z,83.9
2017-12-27T02:23:58.550Z,83.6
2017-12-27T02:25:01.950Z,83.6
2017-12-27T02:26:05.293Z,83.6
2017-12-27T02:27:08.633Z,83.5
2017-12-27T02:28:12.912Z,83.6
2017-12-27T02:29:16.246Z,83.7
2017-12-27T02:30:19.644Z,83.8
2017-12-27T02:31:26.437Z,83.8
2017-12-27T02:32:29.764Z,83.7
2017-12-27T02:33:33.162Z,83.3
2017-12-27T02:34:36.619Z,83.4
2017-12-27T02:35:40.003Z,83.3
2017-12-27T02:36:43.394Z,83.2
2017-12-27T02:37:46.708Z,83.1
2017-12-27T02:38:50.107Z,83
2017-12-27T02:39:53.442Z,83.1
2017-12-27T02:40:56.866Z,83.5
2017-12-27T02:42:04.367Z,83.6
2017-12-27T02:43:07.618Z,83.8
2017-12-27T02:44:10.886Z,84
2017-12-27T02:45:14.118Z,83.9
2017-12-27T02:46:17.571Z,83.8
2017-12-27T02:47:20.867Z,83.8
2017-12-27T02:48:24.159Z,83.7
2017-12-27T02:49:29.470Z,83.9
2017-12-27T02:50:33.288Z,84.2
2017-12-27T02:51:36.736Z,84.2
2017-12-27T02:52:42.855Z,84.3
2017-12-27T02:53:46.220Z,84.3
2017-12-27T02:54:49.573Z,84.3
2017-12-27T02:55:53.195Z,84.4
2017-12-27T02:56:57.197Z,85.3
2017-12-27T02:58:00.286Z,84.4
2017-12-27T02:59:04.514Z,84.5
2017-12-27T03:00:08.472Z,84.5
2017-12-27T03:01:12.756Z,84.3
2017-12-27T03:02:16.138Z,84.2
2017-12-27T03:03:22.915Z,84.2
2017-12-27T03:04:26.239Z,84.1
2017-12-27T03:05:29.551Z,83.9
2017-12-27T03:06:33.619Z,83.6
2017-12-27T03:07:37.115Z,84
2017-12-27T03:08:40.510Z,84.2
2017-12-27T03:09:43.860Z,84.3
2017-12-27T03:10:48.352Z,84.2
2017-12-27T03:11:51.685Z,84.2
2017-12-27T03:12:55.135Z,84
2017-12-27T03:14:03.354Z,83.6
2017-12-27T03:15:07.815Z,84
2017-12-27T03:16:11.403Z,84.3
2017-12-27T03:17:14.783Z,84.4
2017-12-27T03:18:18.164Z,84.2
2017-12-27T03:19:21.511Z,84.2
2017-12-27T03:20:24.932Z,84.3
2017-12-27T03:21:28.370Z,84.2
2017-12-27T03:22:31.658Z,84.1
2017-12-27T03:23:35.183Z,84.1
2017-12-27T03:24:42.653Z,84.2
2017-12-27T03:25:46.614Z,84.2
2017-12-27T03:26:50.055Z,84.1
2017-12-27T03:27:53.369Z,84
2017-12-27T03:28:56.772Z,84
2017-12-27T03:30:00.112Z,83.9
2017-12-27T03:31:03.541Z,83.9
2017-12-27T03:32:06.865Z,84
2017-12-27T03:33:10.228Z,84.1
2017-12-27T03:34:13.647Z,84
2017-12-27T03:35:20.460Z,84.1
2017-12-27T03:36:23.784Z,84
2017-12-27T03:37:27.135Z,84.2
2017-12-27T03:38:30.498Z,84.3
2017-12-27T03:39:33.934Z,84.6
2017-12-27T03:40:37.981Z,84.6
2017-12-27T03:41:41.272Z,84.9
2017-12-27T03:42:45.397Z,85.2
2017-12-27T03:43:48.717Z,85.4
2017-12-27T03:44:52.094Z,85.4
2017-12-27T03:45:58.868Z,85.5
2017-12-27T03:47:02.343Z,85.4
2017-12-27T03:48:06.240Z,85.4
2017-12-27T03:49:09.550Z,85.3
2017-12-27T03:50:12.942Z,85.3
2017-12-27T03:51:16.410Z,85.4
2017-12-27T03:52:19.960Z,85.5
2017-12-27T03:53:23.721Z,85.6
2017-12-27T03:54:27.029Z,85.2
2017-12-27T03:55:30.275Z,85.1
2017-12-27T03:56:37.069Z,85.3
2017-12-27T03:57:40.476Z,85.5
2017-12-27T03:58:43.842Z,85.4
2017-12-27T03:59:47.245Z,85.5
2017-12-27T04:00:50.593Z,85.5
2017-12-27T04:01:54.073Z,85.4
2017-12-27T04:02:57.392Z,85.4
2017-12-27T04:04:00.873Z,85.4
2017-12-27T04:05:04.314Z,86.1
2017-12-27T04:06:07.782Z,85.5
2017-12-27T04:07:14.683Z,85.5
2017-12-27T04:08:18.151Z,85.6
2017-12-27T04:09:21.597Z,85.9
2017-12-27T04:10:24.994Z,86
2017-12-27T04:11:28.359Z,85.9
2017-12-27T04:12:31.778Z,85.7
2017-12-27T04:13:35.152Z,85.6
2017-12-27T04:14:38.615Z,85.6
2017-12-27T04:15:42.028Z,85.7
2017-12-27T04:16:45.545Z,85.6
2017-12-27T04:17:52.426Z,85.5
2017-12-27T04:18:55.838Z,85.3
2017-12-27T04:19:59.547Z,85.5
2017-12-27T04:21:02.965Z,85.6
2017-12-27T04:22:06.874Z,85.8
2017-12-27T04:23:10.252Z,86
2017-12-27T04:24:13.698Z,86
2017-12-27T04:25:17.237Z,85.9
2017-12-27T04:26:20.544Z,85.9
2017-12-27T04:27:23.925Z,86
2017-12-27T04:28:30.937Z,85.9
2017-12-27T04:29:35.774Z,85.7
2017-12-27T04:30:39.187Z,85.5
2017-12-27T04:31:42.560Z,85.7
2017-12-27T04:32:46.736Z,85.8
2017-12-27T04:33:50.213Z,85.8
2017-12-27T04:34:55.679Z,85.8
2017-12-27T04:35:59.223Z,85.7
2017-12-27T04:37:03.039Z,85.4
2017-12-27T04:38:07.072Z,85.5
2017-12-27T04:39:13.996Z,85.7
2017-12-27T04:40:17.571Z,85.6
2017-12-27T04:41:20.943Z,86.4
2017-12-27T04:42:24.855Z,85.8
2017-12-27T04:43:28.369Z,85.7
2017-12-27T04:44:31.765Z,85.6
2017-12-27T04:45:35.193Z,85.6
2017-12-27T04:46:39.429Z,85.7
2017-12-27T04:47:42.722Z,85.7
2017-12-27T04:48:46.065Z,85.7
2017-12-27T04:49:52.891Z,85.9
2017-12-27T04:50:56.314Z,85.8
2017-12-27T04:52:00.301Z,85.8
2017-12-27T04:53:03.684Z,85.7
2017-12-27T04:54:07.012Z,85.6
2017-12-27T04:55:10.472Z,85.6
2017-12-27T04:56:14.035Z,85.6
2017-12-27T04:57:17.526Z,85.6
2017-12-27T04:58:21.006Z,85.4
2017-12-27T04:59:24.481Z,85.4
2017-12-27T05:00:31.399Z,85.5
2017-12-27T05:01:34.678Z,85.6
2017-12-27T05:02:38.109Z,85.6
2017-12-27T05:03:41.491Z,85.6
2017-12-27T05:04:44.946Z,85.6
2017-12-27T05:05:48.202Z,85.4
2017-12-27T05:06:51.486Z,85.6
2017-12-27T05:07:55.270Z,85.6
2017-12-27T05:08:58.739Z,85.5
2017-12-27T05:10:02.124Z,85.5
2017-12-27T05:11:09.036Z,85.7
2017-12-27T05:12:12.433Z,85.5
2017-12-27T05:13:15.831Z,85.4
2017-12-27T05:14:19.280Z,85.7
2017-12-27T05:15:22.712Z,85.6
2017-12-27T05:16:26.244Z,85.9
2017-12-27T05:17:29.599Z,86
2017-12-27T05:18:33.280Z,85.9
2017-12-27T05:19:36.583Z,86
2017-12-27T05:20:40.048Z,86.1
2017-12-27T05:21:47.692Z,86.1
2017-12-27T05:22:51.802Z,86.2
2017-12-27T05:23:55.367Z,86.3
2017-12-27T05:24:58.827Z,86.2
2017-12-27T05:26:02.109Z,86
2017-12-27T05:27:05.506Z,86
2017-12-27T05:28:08.879Z,86.2
2017-12-27T05:29:12.344Z,86.2
2017-12-27T05:30:15.704Z,86.3
2017-12-27T05:31:19.215Z,85.9
2017-12-27T05:32:26.673Z,85.9
2017-12-27T05:33:30.156Z,86.2
2017-12-27T05:34:34.337Z,86
2017-12-27T05:35:38.478Z,85.7
2017-12-27T05:36:41.777Z,86
2017-12-27T05:37:45.105Z,86.2
2017-12-27T05:38:48.470Z,85.9
2017-12-27T05:39:51.949Z,85.9
2017-12-27T05:40:56.250Z,86
2017-12-27T05:42:00.272Z,86.3
2017-12-27T05:43:08.207Z,86.2
2017-12-27T05:44:11.645Z,85.9
2017-12-27T05:45:15.260Z,85.9
2017-12-27T05:46:18.714Z,85.8
2017-12-27T05:47:22.921Z,86.1
2017-12-27T05:48:26.310Z,86.3
2017-12-27T05:49:30.363Z,86.1
2017-12-27T05:50:34.782Z,86.1
2017-12-27T05:51:38.015Z,86.1
2017-12-27T05:52:42.104Z,86.3
2017-12-27T05:53:49.069Z,86.2
2017-12-27T05:54:52.352Z,86.3
2017-12-27T05:55:55.841Z,86.2
2017-12-27T05:56:59.130Z,86
2017-12-27T05:58:03.303Z,86.1
2017-12-27T05:59:07.643Z,86.2
2017-12-27T06:00:12.051Z,86.1
2017-12-27T06:01:15.446Z,86.2
2017-12-27T06:02:18.880Z,86.1
2017-12-27T06:03:22.863Z,86
2017-12-27T06:04:33.724Z,86.1
2017-12-27T06:05:39.032Z,86.2
2017-12-27T06:06:42.913Z,86.1
2017-12-27T06:07:46.991Z,86
2017-12-27T06:08:51.019Z,86.1
2017-12-27T06:09:55.067Z,86.2
2017-12-27T06:10:58.782Z,86.1
2017-12-27T06:12:02.698Z,85.9
2017-12-27T06:13:06.203Z,86
2017-12-27T06:14:10.834Z,86.1
2017-12-27T06:15:19.171Z,86.1
2017-12-27T06:16:23.515Z,86
2017-12-27T06:17:26.964Z,86.1
2017-12-27T06:18:30.399Z,86.1
2017-12-27T06:19:35.317Z,85.9
2017-12-27T06:20:39.434Z,85.9
2017-12-27T06:21:43.668Z,86
2017-12-27T06:22:47.086Z,86
2017-12-27T06:23:51.033Z,86
2017-12-27T06:24:54.984Z,86
2017-12-27T06:26:02.727Z,85.8
2017-12-27T06:27:06.457Z,85.8
2017-12-27T06:28:10.550Z,85.9
2017-12-27T06:29:14.585Z,85.8
2017-12-27T06:30:18.566Z,85.7
2017-12-27T06:31:22.402Z,85.8
2017-12-27T06:32:25.935Z,85.8
2017-12-27T06:33:31.027Z,85.6
2017-12-27T06:34:35.123Z,85.6
2017-12-27T06:35:40.083Z,85.7
2017-12-27T06:36:49.169Z,85.6
2017-12-27T06:37:53.310Z,85.5
2017-12-27T06:38:57.606Z,85.4
2017-12-27T06:40:01.622Z,85.5
2017-12-27T06:41:06.694Z,85.6
2017-12-27T06:42:10.304Z,85.5
2017-12-27T06:43:14.626Z,85.5
2017-12-27T06:44:19.897Z,85.4
2017-12-27T06:45:24.701Z,85.6
2017-12-27T06:46:28.685Z,85.6
2017-12-27T06:47:37.597Z,85.5
2017-12-27T06:48:40.905Z,85.5
2017-12-27T06:49:44.914Z,85.5
2017-12-27T06:50:48.304Z,85.4
2017-12-27T06:51:52.814Z,85.3
2017-12-27T06:52:56.205Z,85.3
2017-12-27T06:53:59.752Z,85.3
2017-12-27T06:55:03.818Z,85.1
2017-12-27T06:56:07.325Z,85.2
2017-12-27T06:57:10.737Z,85.2
2017-12-27T06:58:18.134Z,85
2017-12-27T06:59:22.299Z,84.9
2017-12-27T07:00:26.403Z,84.9
2017-12-27T07:01:29.914Z,84.8
2017-12-27T07:02:33.674Z,84.7
2017-12-27T07:03:37.696Z,84.7
2017-12-27T07:04:43.527Z,84.6
2017-12-27T07:05:46.959Z,84.5
2017-12-27T07:06:50.784Z,84.4
2017-12-27T07:07:54.914Z,84.2
2017-12-27T07:09:01.736Z,84.3
2017-12-27T07:10:05.133Z,84.3
2017-12-27T07:11:08.407Z,84.3
2017-12-27T07:12:11.755Z,84.3
2017-12-27T07:13:14.922Z,84.2
2017-12-27T07:14:18.779Z,84.2
2017-12-27T07:15:22.443Z,84.3
2017-12-27T07:16:27.927Z,84.2
2017-12-27T07:17:32.553Z,84.2
2017-12-27T07:18:38.416Z,84.1
2017-12-27T07:19:46.375Z,84.3
2017-12-27T07:20:55.081Z,84.3
2017-12-27T07:21:58.946Z,84.4
2017-12-27T07:23:03.109Z,84.2
2017-12-27T07:24:06.254Z,84.3
2017-12-27T07:25:10.477Z,84.1
2017-12-27T07:26:14.564Z,84.1
2017-12-27T07:27:18.846Z,84.1
2017-12-27T07:28:23.010Z,83.9
2017-12-27T07:29:28.493Z,84
2017-12-27T07:30:38.584Z,84.1
2017-12-27T07:31:42.096Z,84
2017-12-27T07:32:46.212Z,84.1
2017-12-27T07:33:49.401Z,84.1
2017-12-27T07:34:53.683Z,83.9
2017-12-27T07:35:57.827Z,83.6
2017-12-27T07:37:02.561Z,83.5
2017-12-27T07:38:07.983Z,83.4
2017-12-27T07:39:11.492Z,83.4
2017-12-27T07:40:14.992Z,83.4
2017-12-27T07:41:22.996Z,83.2
2017-12-27T07:42:26.259Z,83.3
2017-12-27T07:43:29.682Z,83.4
2017-12-27T07:44:32.978Z,83.3
2017-12-27T07:45:36.264Z,83.2
2017-12-27T07:46:39.738Z,83.1
2017-12-27T07:47:43.232Z,83.1
2017-12-27T07:48:46.667Z,83
2017-12-27T07:49:51.787Z,83
2017-12-27T07:50:55.140Z,82.9
2017-12-27T07:52:02.001Z,82.7
2017-12-27T07:53:05.124Z,82.7
2017-12-27T07:54:09.463Z,82.6
2017-12-27T07:55:12.824Z,82.7
2017-12-27T07:56:16.130Z,82.6
2017-12-27T07:57:19.379Z,82.5
2017-12-27T07:58:22.769Z,82.5
2017-12-27T07:59:26.423Z,82.6
2017-12-27T08:00:29.814Z,82.6
2017-12-27T08:01:33.167Z,82.6
2017-12-27T08:02:40.166Z,82.6
2017-12-27T08:03:44.312Z,82.6
2017-12-27T08:04:47.606Z,82.6
2017-12-27T08:05:50.992Z,82.6
2017-12-27T08:06:55.082Z,82.6
2017-12-27T08:07:58.489Z,82.7
2017-12-27T08:09:02.254Z,82.8
2017-12-27T08:10:06.291Z,82.6
2017-12-27T08:11:10.365Z,82.7
2017-12-27T08:12:13.779Z,82.7
2017-12-27T08:13:20.742Z,82.7
2017-12-27T08:14:24.183Z,82.5
2017-12-27T08:15:27.666Z,82.5
2017-12-27T08:16:31.010Z,82.6
2017-12-27T08:17:34.502Z,82.2
2017-12-27T08:18:37.850Z,81.8
2017-12-27T08:19:41.427Z,81.8
2017-12-27T08:20:44.988Z,81.6
2017-12-27T08:21:48.430Z,81.5
2017-12-27T08:22:51.794Z,81.4
2017-12-27T08:23:58.694Z,81.3
2017-12-27T08:25:03.376Z,81
2017-12-27T08:26:06.735Z,80.9
2017-12-27T08:27:10.062Z,80.9
2017-12-27T08:28:13.485Z,81
2017-12-27T08:29:16.829Z,81.2
2017-12-27T08:30:20.275Z,81.4
2017-12-27T08:31:23.551Z,81.4
2017-12-27T08:32:26.863Z,81.5
2017-12-27T08:33:30.462Z,81.5
2017-12-27T08:34:37.482Z,81.3
2017-12-27T08:35:41.703Z,81.2
2017-12-27T08:36:45.173Z,81.2
2017-12-27T08:37:49.343Z,81.1
2017-12-27T08:38:52.880Z,80.9
2017-12-27T08:39:56.253Z,80.7
2017-12-27T08:41:00.036Z,80.7
2017-12-27T08:42:03.516Z,80.8
2017-12-27T08:43:06.997Z,80.7
2017-12-27T08:44:10.386Z,80.6
2017-12-27T08:45:17.428Z,80.7
2017-12-27T08:46:20.876Z,80.7
2017-12-27T08:47:24.411Z,80.5
2017-12-27T08:48:27.817Z,80.6
2017-12-27T08:49:31.947Z,80.6
2017-12-27T08:50:36.016Z,80.7
2017-12-27T08:51:39.473Z,80.7
2017-12-27T08:52:42.994Z,80.7
2017-12-27T08:53:46.472Z,80.3
2017-12-27T08:54:49.943Z,80.2
2017-12-27T08:55:57.048Z,80
2017-12-27T08:57:00.395Z,79.8
2017-12-27T08:58:03.880Z,79.7
2017-12-27T08:59:07.337Z,79.8
2017-12-27T09:00:10.638Z,79.7
2017-12-27T09:01:14.014Z,79.5
2017-12-27T09:02:17.437Z,79.5
2017-12-27T09:03:20.877Z,79.4
2017-12-27T09:04:24.540Z,79.3
2017-12-27T09:05:28.047Z,79.6
2017-12-27T09:06:35.363Z,79.9
2017-12-27T09:07:39.469Z,79.9
2017-12-27T09:08:42.922Z,79.9
2017-12-27T09:09:46.481Z,80
2017-12-27T09:10:49.924Z,80
2017-12-27T09:11:53.963Z,80
2017-12-27T09:12:57.385Z,79.9
2017-12-27T09:14:00.849Z,80
2017-12-27T09:15:04.360Z,80
2017-12-27T09:16:07.748Z,79.8
2017-12-27T09:17:14.792Z,79.6
2017-12-27T09:18:18.180Z,78.9
2017-12-27T09:19:21.511Z,78.7
2017-12-27T09:20:25.002Z,78.6
2017-12-27T09:21:29.239Z,78.6
2017-12-27T09:22:32.676Z,78.6
2017-12-27T09:23:36.929Z,78.4
2017-12-27T09:24:40.293Z,78.4
2017-12-27T09:25:43.837Z,78
2017-12-27T09:26:47.181Z,77.7
2017-12-27T09:27:54.085Z,77.5
2017-12-27T09:28:57.632Z,77.5
2017-12-27T09:30:01.084Z,77.5
2017-12-27T09:31:04.609Z,77.6
2017-12-27T09:32:07.939Z,77.5
2017-12-27T09:33:11.352Z,77.5
2017-12-27T09:34:14.817Z,77.4
2017-12-27T09:35:18.350Z,77.2
2017-12-27T09:36:23.604Z,77.4
2017-12-27T09:37:27.666Z,77.6
2017-12-27T09:38:34.840Z,77.7
2017-12-27T09:39:38.310Z,77.6
2017-12-27T09:40:41.902Z,78
2017-12-27T09:41:45.545Z,78
2017-12-27T09:42:49.180Z,77.6
2017-12-27T09:43:53.230Z,77.2
2017-12-27T09:44:56.633Z,77.4
2017-12-27T09:45:59.981Z,77.4
2017-12-27T09:47:03.291Z,77.1
2017-12-27T09:48:06.715Z,77
2017-12-27T09:49:13.668Z,77
2017-12-27T09:50:17.238Z,77
2017-12-27T09:51:20.820Z,77.1
2017-12-27T09:52:24.209Z,77.2
2017-12-27T09:53:28.349Z,77.2
2017-12-27T09:54:31.816Z,76.9
2017-12-27T09:55:35.285Z,76.9
2017-12-27T09:56:38.626Z,76.4
2017-12-27T09:57:42.240Z,76.3
2017-12-27T09:58:46.368Z,76.4
2017-12-27T09:59:54.018Z,76.5
2017-12-27T10:00:59.082Z,76.6
2017-12-27T10:02:02.476Z,76.8
2017-12-27T10:03:10.332Z,76.7
2017-12-27T10:04:19.026Z,76.5
2017-12-27T10:05:26.542Z,75.6
2017-12-27T10:06:33.666Z,75.6
2017-12-27T10:07:38.137Z,74.8
2017-12-27T10:08:44.591Z,75.1
2017-12-27T10:09:48.071Z,75.6
2017-12-27T10:10:55.053Z,75.9
2017-12-27T10:11:58.569Z,76.1
2017-12-27T10:13:02.076Z,76.1
2017-12-27T10:14:05.474Z,75.9
2017-12-27T10:15:08.954Z,76
2017-12-27T10:16:13.089Z,77.3
2017-12-27T10:17:17.662Z,76.8
2017-12-27T10:18:21.366Z,77
2017-12-27T10:19:24.923Z,77.1
2017-12-27T10:20:28.253Z,76.6
2017-12-27T10:21:35.348Z,76.2
2017-12-27T10:22:40.182Z,75.3
2017-12-27T10:23:43.813Z,75.4
2017-12-27T10:24:47.465Z,75.3
2017-12-27T10:25:51.009Z,74.8
2017-12-27T10:26:55.087Z,74.4
2017-12-27T10:27:58.600Z,74.5
2017-12-27T10:29:03.122Z,74.4
2017-12-27T10:30:06.597Z,74.5
2017-12-27T10:31:09.991Z,75.1
2017-12-27T10:32:17.055Z,75.6
2017-12-27T10:33:20.680Z,75.9
2017-12-27T10:34:24.209Z,75.9
2017-12-27T10:35:27.707Z,76.3
2017-12-27T10:36:31.250Z,76
2017-12-27T10:37:34.714Z,75.5
2017-12-27T10:38:38.110Z,75.5
2017-12-27T10:39:41.640Z,74.7
2017-12-27T10:40:45.352Z,74.2
2017-12-27T10:41:49.644Z,74.2
2017-12-27T10:42:57.461Z,74.3
2017-12-27T10:44:01.489Z,73.9
2017-12-27T10:45:06.192Z,74.2
2017-12-27T10:46:09.854Z,73.7
2017-12-27T10:47:13.342Z,73.2
2017-12-27T10:48:16.871Z,72.7
2017-12-27T10:49:20.339Z,72.3
2017-12-27T10:50:25.358Z,71.1
2017-12-27T10:51:28.882Z,71.5
2017-12-27T10:52:32.394Z,71.1
2017-12-27T10:53:40.854Z,70.7
2017-12-27T10:54:44.153Z,70.6
2017-12-27T10:55:47.579Z,70.7
2017-12-27T10:56:51.045Z,70.2
2017-12-27T10:57:55.131Z,70.1
2017-12-27T10:58:58.571Z,70
2017-12-27T11:00:02.165Z,68.6
2017-12-27T11:01:05.512Z,67.8
2017-12-27T11:02:09.694Z,67.4
2017-12-27T11:03:13.691Z,68.2
2017-12-27T11:04:21.622Z,68.1
2017-12-27T11:05:25.219Z,67.8
2017-12-27T11:06:28.708Z,68.2
2017-12-27T11:07:32.118Z,67.2
2017-12-27T11:08:35.668Z,66.6
2017-12-27T11:09:40.106Z,66.2
2017-12-27T11:10:43.739Z,65.6
2017-12-27T11:11:47.968Z,66.3
2017-12-27T11:12:52.749Z,66.3
2017-12-27T11:13:56.325Z,65.9
2017-12-27T11:15:04.167Z,66.6
2017-12-27T11:16:08.357Z,67.8
2017-12-27T11:17:12.580Z,67.4
2017-12-27T11:18:16.861Z,65.9
2017-12-27T11:19:20.191Z,66
2017-12-27T11:20:23.575Z,66.3
2017-12-27T11:21:27.968Z,65.9
2017-12-27T11:22:32.139Z,66.9
2017-12-27T11:23:35.534Z,67.2
2017-12-27T11:24:39.017Z,67.2
2017-12-27T11:25:45.843Z,66.1
2017-12-27T11:26:49.295Z,67.8
2017-12-27T11:27:53.439Z,68.5
2017-12-27T11:28:56.974Z,69.3
2017-12-27T11:30:00.400Z,70.3
2017-12-27T11:31:04.957Z,70.2
2017-12-27T11:32:08.940Z,70.4
2017-12-27T11:33:12.259Z,70.9
2017-12-27T11:34:17.431Z,71.5
2017-12-27T11:35:20.958Z,71.9
2017-12-27T11:36:28.151Z,71.5
2017-12-27T11:37:31.689Z,71.2
2017-12-27T11:38:35.128Z,71.8
2017-12-27T11:39:38.731Z,72.4
2017-12-27T11:40:42.187Z,72.6
2017-12-27T11:41:47.712Z,72.3
2017-12-27T11:42:51.796Z,71.9
2017-12-27T11:43:56.040Z,71.6
2017-12-27T11:45:02.514Z,71.2
2017-12-27T11:46:05.933Z,71.5
2017-12-27T11:47:13.019Z,71.2
2017-12-27T11:48:16.540Z,70.6
2017-12-27T11:49:20.036Z,70.7
2017-12-27T11:50:23.411Z,70.6
2017-12-27T11:51:26.814Z,70.4
2017-12-27T11:52:30.234Z,70.4
2017-12-27T11:53:33.612Z,69.6
2017-12-27T11:54:37.154Z,70
2017-12-27T11:55:40.641Z,70
2017-12-27T11:56:44.078Z,69.6
2017-12-27T11:57:51.066Z,69.8
2017-12-27T11:58:56.085Z,70.4
2017-12-27T11:59:59.540Z,70.6
2017-12-27T12:01:02.976Z,70.6
2017-12-27T12:02:06.349Z,70.5
2017-12-27T12:03:09.631Z,71.1
2017-12-27T12:04:13.062Z,71.5
2017-12-27T12:05:16.345Z,70.8
2017-12-27T12:06:19.811Z,70.9
2017-12-27T12:07:23.220Z,71
2017-12-27T12:08:30.342Z,70.8
2017-12-27T12:09:33.905Z,69.8
2017-12-27T12:10:37.256Z,69.7
2017-12-27T12:11:40.474Z,69.4
2017-12-27T12:12:43.951Z,69.2
2017-12-27T12:13:47.322Z,69.1
2017-12-27T12:14:50.896Z,69.4
2017-12-27T12:15:54.200Z,70.1
2017-12-27T12:16:57.605Z,69.9
2017-12-27T12:18:01.764Z,70
2017-12-27T12:19:08.649Z,69.4
2017-12-27T12:20:12.230Z,69.7
2017-12-27T12:21:15.575Z,68.9
2017-12-27T12:22:18.945Z,68.9
2017-12-27T12:23:22.403Z,68.9
2017-12-27T12:24:25.810Z,69.7
2017-12-27T12:25:29.391Z,69.4
2017-12-27T12:26:32.795Z,69.3
2017-12-27T12:27:36.243Z,69.9
2017-12-27T12:28:39.657Z,69.5
2017-12-27T12:29:46.580Z,69.3
2017-12-27T12:30:50.044Z,69.1
2017-12-27T12:31:53.451Z,69.6
2017-12-27T12:32:56.745Z,68.7
2017-12-27T12:34:00.314Z,68.8
2017-12-27T12:35:03.719Z,69
2017-12-27T12:36:07.037Z,69.3
2017-12-27T12:37:10.621Z,69
2017-12-27T12:38:13.893Z,69.3
2017-12-27T12:39:17.296Z,69.7
2017-12-27T12:40:24.165Z,70.1
2017-12-27T12:41:27.738Z,70.1
2017-12-27T12:42:31.063Z,69.2
2017-12-27T12:43:34.476Z,69.4
2017-12-27T12:44:37.779Z,69.4
2017-12-27T12:45:41.208Z,70.1
2017-12-27T12:46:44.699Z,70.1
2017-12-27T12:47:48.191Z,70.6
2017-12-27T12:48:51.679Z,70.3
2017-12-27T12:49:55.032Z,70.4
2017-12-27T12:51:02.026Z,70
2017-12-27T12:52:05.448Z,69.7
2017-12-27T12:53:08.856Z,70.3
2017-12-27T12:54:12.353Z,70.5
2017-12-27T12:55:16.438Z,70.7
2017-12-27T12:56:19.766Z,71.1
2017-12-27T12:57:23.198Z,71.2
2017-12-27T12:58:26.448Z,71.6
2017-12-27T12:59:30.364Z,71.8
2017-12-27T13:00:33.894Z,71.8
2017-12-27T13:01:44.605Z,71.8
2017-12-27T13:02:49.378Z,72.2
2017-12-27T13:03:53.804Z,73
2017-12-27T13:05:00.682Z,72.2
2017-12-27T13:06:05.943Z,72.4
2017-12-27T13:07:09.503Z,72.1
2017-12-27T13:08:14.053Z,72.1
2017-12-27T13:09:20.192Z,72.2
2017-12-27T13:10:24.322Z,72.6
2017-12-27T13:11:27.754Z,72.8
2017-12-27T13:12:35.004Z,72.3
2017-12-27T13:13:38.555Z,71.8
2017-12-27T13:14:42.616Z,71.7
2017-12-27T13:15:46.096Z,71.2
2017-12-27T13:16:49.791Z,71.2
2017-12-27T13:17:53.284Z,71.1
2017-12-27T13:18:56.773Z,70.8
2017-12-27T13:20:00.165Z,70.7
2017-12-27T13:21:03.458Z,70.4
2017-12-27T13:22:06.895Z,70.4
2017-12-27T13:23:14.120Z,70.6
2017-12-27T13:24:17.851Z,70.6
2017-12-27T13:25:21.299Z,70.8
2017-12-27T13:26:24.876Z,70.6
2017-12-27T13:27:28.254Z,70.7
2017-12-27T13:28:31.728Z,70.5
2017-12-27T13:29:35.295Z,70.6
2017-12-27T13:30:38.893Z,70.5
2017-12-27T13:31:42.875Z,70.5
2017-12-27T13:32:46.396Z,70.6
2017-12-27T13:33:54.314Z,70.6
2017-12-27T13:34:57.793Z,71.5
2017-12-27T13:36:01.214Z,70.5
2017-12-27T13:37:05.212Z,70
2017-12-27T13:38:09.805Z,69.5
2017-12-27T13:39:14.292Z,69.9
2017-12-27T13:40:19.446Z,70.1
2017-12-27T13:41:22.916Z,70
2017-12-27T13:42:27.116Z,69.6
2017-12-27T13:43:30.581Z,69.5
2017-12-27T13:44:37.811Z,69.4
2017-12-27T13:45:42.231Z,69.6
2017-12-27T13:46:45.777Z,69.7
2017-12-27T13:47:49.245Z,69.8
2017-12-27T13:48:52.733Z,70.1
2017-12-27T13:49:56.290Z,70.5
2017-12-27T13:51:00.754Z,70.9
2017-12-27T13:52:04.354Z,71
2017-12-27T13:53:09.068Z,71.1
2017-12-27T13:54:12.647Z,71.1
2017-12-27T13:55:20.724Z,71.3
2017-12-27T13:56:25.357Z,71.6
2017-12-27T13:57:28.910Z,71.8
2017-12-27T13:58:32.430Z,71.9
2017-12-27T13:59:35.944Z,71.9
2017-12-27T14:00:39.466Z,72.2
2017-12-27T14:01:43.024Z,72.5
2017-12-27T14:02:46.709Z,72.8
2017-12-27T14:03:50.235Z,73
2017-12-27T14:04:53.929Z,73.2
2017-12-27T14:06:01.619Z,73.3
2017-12-27T14:07:05.586Z,73.2
2017-12-27T14:08:09.823Z,73.3
2017-12-27T14:09:13.269Z,73.4
2017-12-27T14:10:16.650Z,73.5
2017-12-27T14:11:20.036Z,73.4
2017-12-27T14:12:24.142Z,73.6
2017-12-27T14:13:27.550Z,73.5
2017-12-27T14:14:31.025Z,73.4
2017-12-27T14:15:35.162Z,73.4
2017-12-27T14:16:43.878Z,73.3
2017-12-27T14:17:48.313Z,73.4
2017-12-27T14:18:51.954Z,73.6